Time;durP1;ratioP1;P1;durP2;ratioP2;P2;SDS_P1;SDS_P2;PMS_P1;PMS_P2;Temp;Humidity;BMP_temperature;BMP_pressure;BME280_temperature;BME280_humidity;BME280_pressure;Samples;Min_cycle;Max_cycle;Signal;HPM_P1;HPM_P2
2022/04/13 00:02:08;;;;;;;7.72;2.72;;;;;;;;;;5053710;28;20409;-85
2022/04/13 00:04:33;;;;;;;4.82;2.55;;;;;;;;;;5053899;28;20079;-86
2022/04/13 00:06:59;;;;;;;4.15;2.50;;;;;;;;;;5052959;28;20028;-83
2022/04/13 00:09:24;;;;;;;6.15;2.50;;;;;;;;;;5058031;28;20041;-82
2022/04/13 00:11:50;;;;;;;4.65;2.40;;;;;;;;;;5057382;28;20063;-85
2022/04/13 00:14:15;;;;;;;3.47;2.42;;;;;;;;;;5053004;28;20029;-82
2022/04/13 00:16:42;;;;;;;4.38;2.60;;;;;;;;;;5052541;28;20203;-84
2022/04/13 00:19:07;;;;;;;6.07;2.60;;;;;;;;;;5052470;28;20074;-85
2022/04/13 00:21:32;;;;;;;4.97;2.90;;;;;;;;;;5053819;28;20468;-85
2022/04/13 00:23:57;;;;;;;5.78;2.63;;;;;;;;;;5052087;28;20025;-82
2022/04/13 00:26:23;;;;;;;4.47;2.83;;;;;;;;;;5052206;28;20443;-82
2022/04/13 00:28:48;;;;;;;5.18;2.97;;;;;;;;;;5034890;28;20475;-83
2022/04/13 00:31:13;;;;;;;5.72;2.90;;;;;;;;;;5061129;28;20059;-85
2022/04/13 00:33:39;;;;;;;6.65;3.10;;;;;;;;;;5056070;28;20551;-85
2022/04/13 00:36:04;;;;;;;6.35;2.90;;;;;;;;;;5053838;28;20075;-85
2022/04/13 00:38:29;;;;;;;5.80;3.22;;;;;;;;;;5054200;28;20067;-87
2022/04/13 00:40:55;;;;;;;4.93;2.67;;;;;;;;;;5052553;28;20036;-84
2022/04/13 00:43:20;;;;;;;5.85;2.90;;;;;;;;;;5036460;28;20033;-85
2022/04/13 00:45:45;;;;;;;6.32;3.17;;;;;;;;;;5053698;28;20029;-85
2022/04/13 00:48:11;;;;;;;6.82;3.05;;;;;;;;;;5052662;28;20624;-85
2022/04/13 00:50:36;;;;;;;4.75;2.92;;;;;;;;;;5054349;28;20025;-85
2022/04/13 00:53:01;;;;;;;9.02;3.30;;;;;;;;;;5054008;28;20497;-83
2022/04/13 00:55:27;;;;;;;5.10;3.20;;;;;;;;;;5052404;28;20052;-83
2022/04/13 00:57:52;;;;;;;6.43;3.13;;;;;;;;;;5054919;28;20123;-84
2022/04/13 01:00:19;;;;;;;6.43;3.00;;;;;;;;;;5057219;28;20116;-83
2022/04/13 01:02:44;;;;;;;6.63;3.30;;;;;;;;;;5058557;28;20116;-84
2022/04/13 01:05:09;;;;;;;6.53;3.30;;;;;;;;;;5040193;28;20489;-86
2022/04/13 01:07:35;;;;;;;6.60;3.20;;;;;;;;;;5063563;28;20033;-84
2022/04/13 01:10:00;;;;;;;5.28;3.20;;;;;;;;;;5057251;28;20405;-84
2022/04/13 01:12:26;;;;;;;8.35;3.60;;;;;;;;;;5058824;28;20137;-86
2022/04/13 01:14:51;;;;;;;5.70;3.10;;;;;;;;;;5056121;28;20048;-85
2022/04/13 01:17:16;;;;;;;5.75;3.20;;;;;;;;;;5038166;28;20033;-85
2022/04/13 01:19:41;;;;;;;8.63;2.80;;;;;;;;;;5054786;28;20404;-83
2022/04/13 01:22:08;;;;;;;5.88;2.92;;;;;;;;;;5055975;28;20088;-82
2022/04/13 01:24:33;;;;;;;4.20;2.83;;;;;;;;;;5054108;28;20029;-86
2022/04/13 01:26:59;;;;;;;4.38;2.72;;;;;;;;;;5055898;28;20036;-83
2022/04/13 01:29:24;;;;;;;4.65;2.85;;;;;;;;;;5055188;28;20016;-84
2022/04/13 01:31:51;;;;;;;5.07;2.53;;;;;;;;;;5055591;28;20439;-84
2022/04/13 01:34:16;;;;;;;5.25;2.80;;;;;;;;;;5054337;28;20048;-84
2022/04/13 01:36:42;;;;;;;5.60;2.70;;;;;;;;;;5053749;28;20115;-85
2022/04/13 01:39:07;;;;;;;4.22;2.53;;;;;;;;;;5041287;28;20017;-83
2022/04/13 01:41:32;;;;;;;4.90;2.80;;;;;;;;;;5044731;28;20088;-86
2022/04/13 01:43:57;;;;;;;5.03;2.70;;;;;;;;;;5055913;28;20033;-83
2022/04/13 01:46:23;;;;;;;6.00;3.15;;;;;;;;;;5055039;28;20041;-85
2022/04/13 01:48:48;;;;;;;5.38;2.92;;;;;;;;;;5056863;28;20113;-85
2022/04/13 01:51:14;;;;;;;5.00;2.70;;;;;;;;;;5056609;28;20024;-86
2022/04/13 01:53:39;;;;;;;3.78;2.90;;;;;;;;;;5056755;28;20064;-86
2022/04/13 01:56:05;;;;;;;3.85;2.67;;;;;;;;;;5054995;28;20033;-84
2022/04/13 01:58:31;;;;;;;4.00;2.90;;;;;;;;;;5056295;28;20025;-82
2022/04/13 02:00:57;;;;;;;4.80;3.08;;;;;;;;;;5056234;28;20056;-83
2022/04/13 02:03:22;;;;;;;5.88;2.78;;;;;;;;;;5056452;28;20040;-82
2022/04/13 02:05:48;;;;;;;5.15;2.58;;;;;;;;;;5062500;28;20037;-84
2022/04/13 02:08:13;;;;;;;4.47;2.70;;;;;;;;;;5054383;28;20063;-84
2022/04/13 02:10:39;;;;;;;4.55;2.80;;;;;;;;;;5055286;28;20041;-85
2022/04/13 02:13:04;;;;;;;3.38;2.50;;;;;;;;;;5055585;28;20040;-85
2022/04/13 02:15:29;;;;;;;4.88;2.70;;;;;;;;;;5054971;28;20055;-83
2022/04/13 02:17:54;;;;;;;3.70;2.63;;;;;;;;;;5053804;28;20041;-85
2022/04/13 02:20:20;;;;;;;3.80;2.50;;;;;;;;;;5055265;28;20036;-84
2022/04/13 02:22:46;;;;;;;5.53;2.90;;;;;;;;;;5055560;28;20400;-84
2022/04/13 02:25:11;;;;;;;5.15;2.65;;;;;;;;;;5054839;28;20473;-85
2022/04/13 02:27:36;;;;;;;5.30;2.58;;;;;;;;;;5053457;28;20041;-85
2022/04/13 02:30:02;;;;;;;5.32;2.33;;;;;;;;;;5077759;22;20041;-81
2022/04/13 02:32:27;;;;;;;3.65;2.28;;;;;;;;;;5055118;28;20037;-80
2022/04/13 02:34:52;;;;;;;5.43;2.58;;;;;;;;;;5055706;28;20086;-80
2022/04/13 02:37:17;;;;;;;4.25;2.50;;;;;;;;;;5054449;28;20029;-80
2022/04/13 02:39:44;;;;;;;6.05;2.42;;;;;;;;;;5053739;28;20378;-81
2022/04/13 02:42:12;;;;;;;3.30;2.33;;;;;;;;;;5054737;28;20036;-81
2022/04/13 02:44:37;;;;;;;3.50;2.40;;;;;;;;;;5052785;28;20041;-81
2022/04/13 02:47:02;;;;;;;4.00;2.50;;;;;;;;;;5054964;28;20037;-80
2022/04/13 02:49:27;;;;;;;3.92;2.40;;;;;;;;;;5054475;28;20098;-80
2022/04/13 02:51:53;;;;;;;3.35;2.40;;;;;;;;;;5053236;28;20029;-80
2022/04/13 02:54:18;;;;;;;4.10;2.55;;;;;;;;;;5053799;28;20144;-81
2022/04/13 02:56:43;;;;;;;4.32;2.70;;;;;;;;;;5053068;28;20037;-81
2022/04/13 02:59:09;;;;;;;4.43;2.60;;;;;;;;;;5054730;28;20032;-81
2022/04/13 03:01:35;;;;;;;4.57;2.50;;;;;;;;;;5052734;28;20128;-80
2022/04/13 03:04:00;;;;;;;4.32;2.40;;;;;;;;;;5052661;28;20112;-80
2022/04/13 03:06:26;;;;;;;4.07;2.67;;;;;;;;;;5054061;28;20032;-80
2022/04/13 03:08:51;;;;;;;4.72;2.60;;;;;;;;;;5052983;28;20032;-80
2022/04/13 03:11:17;;;;;;;3.70;2.58;;;;;;;;;;5054238;28;20061;-81
2022/04/13 03:13:42;;;;;;;3.55;2.30;;;;;;;;;;5052884;28;20478;-80
2022/04/13 03:16:07;;;;;;;4.03;2.72;;;;;;;;;;5053605;28;20025;-80
2022/04/13 03:18:33;;;;;;;4.60;3.00;;;;;;;;;;5055757;28;20562;-81
2022/04/13 03:20:58;;;;;;;6.38;2.78;;;;;;;;;;5053721;28;20033;-80
2022/04/13 03:23:23;;;;;;;6.95;2.95;;;;;;;;;;5054556;28;20076;-81
2022/04/13 03:25:48;;;;;;;4.28;2.90;;;;;;;;;;5052810;28;20033;-80
2022/04/13 03:28:14;;;;;;;4.97;2.90;;;;;;;;;;5052423;28;20047;-81
2022/04/13 03:30:39;;;;;;;5.15;3.05;;;;;;;;;;5053521;28;20029;-81
2022/04/13 03:33:04;;;;;;;6.30;2.70;;;;;;;;;;5054072;28;20067;-80
2022/04/13 03:35:30;;;;;;;5.40;2.75;;;;;;;;;;5053017;28;20039;-80
2022/04/13 03:37:55;;;;;;;4.90;2.90;;;;;;;;;;5053741;28;20067;-80
2022/04/13 03:40:21;;;;;;;6.30;3.00;;;;;;;;;;5052134;28;20033;-80
2022/04/13 03:42:46;;;;;;;3.35;2.55;;;;;;;;;;5053875;28;20044;-80
2022/04/13 03:45:12;;;;;;;5.78;2.88;;;;;;;;;;5051380;28;20036;-80
2022/04/13 03:47:38;;;;;;;3.88;2.72;;;;;;;;;;5055456;28;20034;-81
2022/04/13 03:50:03;;;;;;;4.07;2.78;;;;;;;;;;5053712;28;20098;-80
2022/04/13 03:52:28;;;;;;;7.88;3.78;;;;;;;;;;5035516;28;20119;-80
2022/04/13 03:54:53;;;;;;;5.63;3.40;;;;;;;;;;5034809;28;20021;-80
2022/04/13 03:57:19;;;;;;;4.97;3.15;;;;;;;;;;5053228;28;20115;-81
2022/04/13 03:59:44;;;;;;;6.28;2.85;;;;;;;;;;5053252;28;20046;-80
2022/04/13 04:02:09;;;;;;;5.25;3.28;;;;;;;;;;5053039;28;20097;-81
2022/04/13 04:04:34;;;;;;;4.82;3.25;;;;;;;;;;5055528;28;20091;-81
2022/04/13 04:07:00;;;;;;;8.30;3.35;;;;;;;;;;5055697;28;20033;-80
2022/04/13 04:09:25;;;;;;;6.45;3.72;;;;;;;;;;5054992;28;20092;-81
2022/04/13 04:11:50;;;;;;;8.07;3.97;;;;;;;;;;5052748;28;20512;-80
2022/04/13 04:14:15;;;;;;;6.25;3.60;;;;;;;;;;5034216;28;20547;-80
2022/04/13 04:16:40;;;;;;;6.07;3.50;;;;;;;;;;5053074;28;20066;-81
2022/04/13 04:19:06;;;;;;;7.30;3.50;;;;;;;;;;5053022;28;20060;-81
2022/04/13 04:21:31;;;;;;;9.57;3.40;;;;;;;;;;5051797;28;20493;-81
2022/04/13 04:23:56;;;;;;;7.75;3.47;;;;;;;;;;5052644;28;20107;-80
2022/04/13 04:26:22;;;;;;;5.57;2.90;;;;;;;;;;5052965;28;20477;-81
2022/04/13 04:28:50;;;;;;;5.72;3.50;;;;;;;;;;5054528;28;20401;-81
2022/04/13 04:31:49;;;;;;;5.70;3.50;;;;;;;;;;5052625;28;20029;-81
2022/04/13 04:34:03;;;;;;;5.72;3.38;;;;;;;;;;5055982;28;20072;-80
2022/04/13 04:36:28;;;;;;;4.65;3.28;;;;;;;;;;5056836;28;20060;-80
2022/04/13 04:38:54;;;;;;;14.98;4.10;;;;;;;;;;5057190;28;20030;-80
2022/04/13 04:41:19;;;;;;;28.70;12.77;;;;;;;;;;5056611;28;20511;-81
2022/04/13 04:43:44;;;;;;;7.43;4.40;;;;;;;;;;5056715;28;20033;-81
2022/04/13 04:46:12;;;;;;;17.13;7.72;;;;;;;;;;5055717;28;20035;-81
2022/04/13 04:48:40;;;;;;;40.78;20.48;;;;;;;;;;5055411;28;20033;-80
2022/04/13 04:51:05;;;;;;;40.42;21.20;;;;;;;;;;5056575;28;20107;-81
2022/04/13 04:53:30;;;;;;;45.20;22.85;;;;;;;;;;5057055;28;20065;-81
2022/04/13 04:55:56;;;;;;;31.58;15.10;;;;;;;;;;5055254;28;20041;-81
2022/04/13 04:58:21;;;;;;;21.52;9.70;;;;;;;;;;5056241;28;20036;-80
2022/04/13 05:00:46;;;;;;;14.90;8.40;;;;;;;;;;5057175;28;20048;-80
2022/04/13 05:03:11;;;;;;;12.20;7.05;;;;;;;;;;5056763;28;20040;-81
2022/04/13 05:05:39;;;;;;;11.20;4.88;;;;;;;;;;5057196;28;20045;-81
2022/04/13 05:08:05;;;;;;;6.28;4.35;;;;;;;;;;5057443;28;20511;-80
2022/04/13 05:10:30;;;;;;;8.80;4.22;;;;;;;;;;5058403;28;20033;-81
2022/04/13 05:12:57;;;;;;;4.82;3.20;;;;;;;;;;5055659;28;20036;-81
2022/04/13 05:15:22;;;;;;;12.05;4.13;;;;;;;;;;5055528;28;20041;-81
2022/04/13 05:17:48;;;;;;;8.60;3.95;;;;;;;;;;5055784;28;20043;-81
2022/04/13 05:20:13;;;;;;;8.13;3.60;;;;;;;;;;5055661;28;20497;-80
2022/04/13 05:22:38;;;;;;;9.27;3.80;;;;;;;;;;5054487;28;20095;-81
2022/04/13 05:25:04;;;;;;;6.78;4.22;;;;;;;;;;5053754;28;20044;-80
2022/04/13 05:27:29;;;;;;;6.82;3.88;;;;;;;;;;5056968;28;20024;-80
2022/04/13 05:29:54;;;;;;;10.63;4.30;;;;;;;;;;5058096;28;20040;-81
2022/04/13 05:32:19;;;;;;;7.80;4.57;;;;;;;;;;5057413;28;20036;-80
2022/04/13 05:34:45;;;;;;;6.55;4.28;;;;;;;;;;5056539;28;20489;-80
2022/04/13 05:37:10;;;;;;;8.40;4.50;;;;;;;;;;5056325;28;20043;-80
2022/04/13 05:39:38;;;;;;;7.40;4.18;;;;;;;;;;5056402;28;20029;-81
2022/04/13 05:42:03;;;;;;;7.25;4.55;;;;;;;;;;5057934;28;20036;-80
2022/04/13 05:44:28;;;;;;;8.57;4.22;;;;;;;;;;5056370;28;20086;-81
2022/04/13 05:46:54;;;;;;;6.05;3.92;;;;;;;;;;5057888;28;20028;-81
2022/04/13 05:49:19;;;;;;;8.93;3.85;;;;;;;;;;5055590;28;20382;-81
2022/04/13 05:51:44;;;;;;;6.85;3.80;;;;;;;;;;5054983;28;20163;-80
2022/04/13 05:54:10;;;;;;;7.85;3.65;;;;;;;;;;5054661;28;20115;-80
2022/04/13 05:56:35;;;;;;;6.20;4.10;;;;;;;;;;5055419;28;20040;-81
2022/04/13 05:59:00;;;;;;;5.47;3.45;;;;;;;;;;5055460;28;20105;-80
2022/04/13 06:01:26;;;;;;;5.25;3.83;;;;;;;;;;5055444;28;20044;-81
2022/04/13 06:03:51;;;;;;;7.82;3.80;;;;;;;;;;5055352;28;20040;-80
2022/04/13 06:06:16;;;;;;;10.07;4.63;;;;;;;;;;5053739;28;20041;-80
2022/04/13 06:08:42;;;;;;;9.02;5.40;;;;;;;;;;5054776;28;20333;-80
2022/04/13 06:11:07;;;;;;;11.55;4.68;;;;;;;;;;5053662;28;20389;-80
2022/04/13 06:13:33;;;;;;;8.15;4.43;;;;;;;;;;5055635;28;20025;-80
2022/04/13 06:15:58;;;;;;;13.05;4.95;;;;;;;;;;5053306;28;20039;-80
2022/04/13 06:18:23;;;;;;;11.13;4.38;;;;;;;;;;5054380;28;20483;-80
2022/04/13 06:20:49;;;;;;;5.15;3.65;;;;;;;;;;5055496;28;20040;-80
2022/04/13 06:23:14;;;;;;;8.40;3.72;;;;;;;;;;5055438;28;20024;-80
2022/04/13 06:25:40;;;;;;;6.18;3.88;;;;;;;;;;5054467;28;20048;-80
2022/04/13 06:28:05;;;;;;;5.38;4.00;;;;;;;;;;5054427;28;20041;-80
2022/04/13 06:30:30;;;;;;;7.07;3.90;;;;;;;;;;5053769;28;20060;-81
2022/04/13 06:32:55;;;;;;;5.38;3.65;;;;;;;;;;5054857;28;20043;-80
2022/04/13 06:35:21;;;;;;;5.47;3.50;;;;;;;;;;5055277;28;20029;-80
2022/04/13 06:37:46;;;;;;;5.93;3.30;;;;;;;;;;5055914;28;20111;-81
2022/04/13 06:40:11;;;;;;;6.13;3.10;;;;;;;;;;5053808;28;20063;-81
2022/04/13 06:42:37;;;;;;;3.65;2.38;;;;;;;;;;5054603;28;20029;-81
2022/04/13 06:45:02;;;;;;;6.18;2.60;;;;;;;;;;5054914;28;20416;-80
2022/04/13 06:47:29;;;;;;;3.88;2.05;;;;;;;;;;5055302;28;20068;-80
2022/04/13 06:49:54;;;;;;;5.40;2.50;;;;;;;;;;5053998;28;20137;-80
2022/04/13 06:52:19;;;;;;;5.50;2.63;;;;;;;;;;5055355;28;20056;-80
2022/04/13 06:54:45;;;;;;;4.93;2.60;;;;;;;;;;5055100;28;20059;-81
2022/04/13 06:57:10;;;;;;;3.13;2.00;;;;;;;;;;5054458;28;20044;-81
2022/04/13 06:59:35;;;;;;;4.05;2.33;;;;;;;;;;5055783;28;20025;-81
2022/04/13 07:02:01;;;;;;;6.65;3.00;;;;;;;;;;5054782;28;20044;-81
2022/04/13 07:04:26;;;;;;;4.70;2.78;;;;;;;;;;5057629;28;20499;-80
2022/04/13 07:06:51;;;;;;;6.35;2.53;;;;;;;;;;5055783;28;20035;-81
2022/04/13 07:09:18;;;;;;;9.80;2.63;;;;;;;;;;5054583;28;20062;-81
2022/04/13 07:11:43;;;;;;;4.63;2.30;;;;;;;;;;5055530;28;20452;-80
2022/04/13 07:14:09;;;;;;;6.20;2.63;;;;;;;;;;5038323;28;20041;-81
2022/04/13 07:16:34;;;;;;;5.78;2.30;;;;;;;;;;5056489;28;20394;-80
2022/04/13 07:18:59;;;;;;;5.35;2.20;;;;;;;;;;5055465;28;20048;-81
2022/04/13 07:21:24;;;;;;;4.07;2.00;;;;;;;;;;5054921;28;20049;-81
2022/04/13 07:23:50;;;;;;;4.93;2.10;;;;;;;;;;5054965;28;20074;-80
2022/04/13 07:26:15;;;;;;;5.57;2.35;;;;;;;;;;5053770;28;20044;-80
2022/04/13 07:28:40;;;;;;;6.57;2.25;;;;;;;;;;5055286;28;20048;-81
2022/04/13 07:31:05;;;;;;;5.30;2.25;;;;;;;;;;5055211;28;20025;-80
2022/04/13 07:33:31;;;;;;;2.70;1.60;;;;;;;;;;5055219;28;20051;-80
2022/04/13 07:35:56;;;;;;;3.28;1.77;;;;;;;;;;5055268;28;20374;-80
2022/04/13 07:38:21;;;;;;;4.43;2.50;;;;;;;;;;5056137;28;20044;-81
2022/04/13 07:40:47;;;;;;;5.40;2.88;;;;;;;;;;5056892;28;20079;-81
2022/04/13 07:43:13;;;;;;;5.35;2.83;;;;;;;;;;5055269;28;20553;-81
2022/04/13 07:45:39;;;;;;;5.32;2.70;;;;;;;;;;5055781;28;20025;-80
2022/04/13 07:48:05;;;;;;;4.60;2.78;;;;;;;;;;5055810;28;20524;-80
2022/04/13 07:50:30;;;;;;;6.90;2.80;;;;;;;;;;5055715;28;20032;-80
2022/04/13 07:52:56;;;;;;;5.65;2.83;;;;;;;;;;5056485;28;20028;-80
2022/04/13 07:55:21;;;;;;;6.60;3.05;;;;;;;;;;5054526;28;20029;-80
2022/04/13 07:57:46;;;;;;;3.83;2.42;;;;;;;;;;5056622;28;20044;-80
2022/04/13 08:00:11;;;;;;;8.15;3.05;;;;;;;;;;5056638;28;20036;-79
2022/04/13 08:02:40;;;;;;;5.75;2.90;;;;;;;;;;5056427;28;20040;-80
2022/04/13 08:05:05;;;;;;;5.78;2.70;;;;;;;;;;5053980;28;20230;-80
2022/04/13 08:07:30;;;;;;;6.18;2.42;;;;;;;;;;5055866;28;20123;-80
2022/04/13 08:09:55;;;;;;;6.07;2.80;;;;;;;;;;5056421;28;20033;-80
2022/04/13 08:12:21;;;;;;;6.82;2.95;;;;;;;;;;5056297;28;20417;-80
2022/04/13 08:14:46;;;;;;;6.78;2.60;;;;;;;;;;5053973;28;20128;-80
2022/04/13 08:17:12;;;;;;;4.60;2.58;;;;;;;;;;5056050;28;20045;-80
2022/04/13 08:19:37;;;;;;;4.93;2.40;;;;;;;;;;5055478;28;20041;-79
2022/04/13 08:22:02;;;;;;;5.15;2.50;;;;;;;;;;5055666;28;20033;-80
2022/04/13 08:24:29;;;;;;;3.08;2.17;;;;;;;;;;5055714;28;20072;-80
2022/04/13 08:26:54;;;;;;;5.53;2.45;;;;;;;;;;5055617;28;20044;-81
2022/04/13 08:29:19;;;;;;;4.80;2.40;;;;;;;;;;5055625;28;20037;-80
2022/04/13 08:31:45;;;;;;;3.83;1.98;;;;;;;;;;5085602;22;20108;-86
2022/04/13 08:34:10;;;;;;;6.85;2.40;;;;;;;;;;5059186;28;20044;-87
2022/04/13 08:36:35;;;;;;;5.28;2.00;;;;;;;;;;5040764;28;20029;-86
2022/04/13 08:39:00;;;;;;;7.28;2.28;;;;;;;;;;5056752;28;20059;-86
2022/04/13 08:41:26;;;;;;;3.13;1.88;;;;;;;;;;5057820;28;20508;-86
2022/04/13 08:43:51;;;;;;;5.25;2.25;;;;;;;;;;5056635;28;20109;-85
2022/04/13 08:46:16;;;;;;;4.82;2.20;;;;;;;;;;5058435;28;20037;-86
2022/04/13 08:48:41;;;;;;;5.30;2.13;;;;;;;;;;5058262;28;20045;-85
2022/04/13 08:51:07;;;;;;;3.03;1.98;;;;;;;;;;5057388;28;20064;-86
2022/04/13 08:53:32;;;;;;;6.00;2.00;;;;;;;;;;5060071;28;20366;-85
2022/04/13 08:55:58;;;;;;;3.58;2.00;;;;;;;;;;5058601;28;20040;-85
2022/04/13 08:58:23;;;;;;;3.67;1.85;;;;;;;;;;5058743;28;20033;-86
2022/04/13 09:00:49;;;;;;;5.80;2.15;;;;;;;;;;5058884;28;20044;-84
2022/04/13 09:03:14;;;;;;;4.35;1.60;;;;;;;;;;5057346;28;20041;-85
2022/04/13 09:05:39;;;;;;;3.10;1.27;;;;;;;;;;5057744;28;20021;-84
2022/04/13 09:08:05;;;;;;;2.13;1.20;;;;;;;;;;5057521;28;20345;-85
2022/04/13 09:10:30;;;;;;;2.53;1.30;;;;;;;;;;5057295;28;20519;-85
2022/04/13 09:12:55;;;;;;;3.38;1.58;;;;;;;;;;5057692;28;20029;-86
2022/04/13 09:15:20;;;;;;;4.65;1.70;;;;;;;;;;5057715;28;20374;-83
2022/04/13 09:17:46;;;;;;;2.83;1.30;;;;;;;;;;5058040;28;20063;-85
2022/04/13 09:20:11;;;;;;;2.55;1.33;;;;;;;;;;5060013;28;20032;-84
2022/04/13 09:22:37;;;;;;;2.78;1.60;;;;;;;;;;5060864;28;20072;-85
2022/04/13 09:25:02;;;;;;;2.40;1.50;;;;;;;;;;5057125;28;20111;-85
2022/04/13 09:27:27;;;;;;;4.20;1.60;;;;;;;;;;5057795;28;20036;-84
2022/04/13 09:29:52;;;;;;;2.60;1.20;;;;;;;;;;5056901;28;20044;-85
2022/04/13 09:32:18;;;;;;;1.83;1.30;;;;;;;;;;5060856;28;20025;-86
2022/04/13 09:34:43;;;;;;;4.55;1.25;;;;;;;;;;5041134;28;20036;-84
2022/04/13 09:37:08;;;;;;;2.35;1.30;;;;;;;;;;5056003;28;20041;-86
2022/04/13 09:39:34;;;;;;;2.45;1.25;;;;;;;;;;5067864;28;20084;-86
2022/04/13 09:41:59;;;;;;;6.90;1.40;;;;;;;;;;5061117;28;20025;-84
2022/04/13 09:44:25;;;;;;;2.50;1.35;;;;;;;;;;5060923;28;20547;-83
2022/04/13 09:46:50;;;;;;;3.85;1.40;;;;;;;;;;5059755;28;20037;-84
2022/04/13 09:49:15;;;;;;;3.53;1.38;;;;;;;;;;5060395;28;20059;-84
2022/04/13 09:51:41;;;;;;;3.45;1.70;;;;;;;;;;5059594;28;20025;-86
2022/04/13 09:54:06;;;;;;;2.72;1.20;;;;;;;;;;5060685;28;20554;-84
2022/04/13 09:56:31;;;;;;;3.70;1.60;;;;;;;;;;5043024;28;20056;-84
2022/04/13 09:58:56;;;;;;;4.60;1.50;;;;;;;;;;5059608;28;20040;-85
2022/04/13 10:01:22;;;;;;;3.53;1.50;;;;;;;;;;5059760;28;20100;-85
2022/04/13 10:03:47;;;;;;;2.95;1.50;;;;;;;;;;5059197;28;20044;-86
2022/04/13 10:06:12;;;;;;;5.47;1.52;;;;;;;;;;5059141;28;20044;-85
2022/04/13 10:08:38;;;;;;;4.68;1.50;;;;;;;;;;5058040;28;20115;-84
2022/04/13 10:11:03;;;;;;;4.28;1.73;;;;;;;;;;5059705;28;20033;-84
2022/04/13 10:13:28;;;;;;;2.40;1.58;;;;;;;;;;5059728;28;20050;-84
2022/04/13 10:15:53;;;;;;;3.90;1.77;;;;;;;;;;5058488;28;20036;-84
2022/04/13 10:18:19;;;;;;;3.20;1.60;;;;;;;;;;5058706;28;20028;-83
2022/04/13 10:20:44;;;;;;;5.05;1.60;;;;;;;;;;5058540;28;20341;-84
2022/04/13 10:23:09;;;;;;;3.42;1.60;;;;;;;;;;5059417;28;20072;-84
2022/04/13 10:25:35;;;;;;;5.47;1.55;;;;;;;;;;5059071;28;20065;-85
2022/04/13 10:28:00;;;;;;;3.17;1.50;;;;;;;;;;5059806;28;20041;-86
2022/04/13 10:30:26;;;;;;;2.70;1.50;;;;;;;;;;5058661;28;20047;-85
2022/04/13 10:32:51;;;;;;;9.20;1.60;;;;;;;;;;5059481;28;20089;-85
2022/04/13 10:35:16;;;;;;;6.40;1.60;;;;;;;;;;5039124;28;20063;-85
2022/04/13 10:37:44;;;;;;;3.40;1.60;;;;;;;;;;5053882;28;20052;-85
2022/04/13 10:40:09;;;;;;;3.15;1.75;;;;;;;;;;5054289;28;20108;-85
2022/04/13 10:42:35;;;;;;;8.05;1.80;;;;;;;;;;5053828;28;20466;-84
2022/04/13 10:45:00;;;;;;;5.90;1.70;;;;;;;;;;5057077;28;20037;-83
2022/04/13 10:47:25;;;;;;;3.83;1.80;;;;;;;;;;5064497;28;20064;-86
2022/04/13 10:49:50;;;;;;;4.60;1.63;;;;;;;;;;5057778;28;20516;-84
2022/04/13 10:52:16;;;;;;;3.88;1.70;;;;;;;;;;5058465;28;20033;-85
2022/04/13 10:54:41;;;;;;;5.53;1.70;;;;;;;;;;5057010;28;20489;-85
2022/04/13 10:57:06;;;;;;;4.25;2.22;;;;;;;;;;5057936;28;20025;-85
2022/04/13 10:59:32;;;;;;;3.45;1.98;;;;;;;;;;5056771;28;20044;-85
2022/04/13 11:01:58;;;;;;;3.95;1.80;;;;;;;;;;5056445;28;20032;-86
2022/04/13 11:04:23;;;;;;;5.85;1.75;;;;;;;;;;5055323;28;20124;-85
2022/04/13 11:06:48;;;;;;;3.15;2.00;;;;;;;;;;5055725;28;20053;-85
2022/04/13 11:09:14;;;;;;;5.88;2.00;;;;;;;;;;5056109;28;20050;-85
2022/04/13 11:11:40;;;;;;;3.35;1.92;;;;;;;;;;5057932;28;20029;-85
2022/04/13 11:14:05;;;;;;;3.78;2.15;;;;;;;;;;5056717;28;20037;-83
2022/04/13 11:16:31;;;;;;;3.35;1.98;;;;;;;;;;5055578;28;20064;-84
2022/04/13 11:18:56;;;;;;;4.55;2.20;;;;;;;;;;5056742;28;20094;-87
2022/04/13 11:21:21;;;;;;;3.97;2.30;;;;;;;;;;5058339;28;20378;-86
2022/04/13 11:23:49;;;;;;;7.45;2.80;;;;;;;;;;5056735;28;20040;-86
2022/04/13 11:26:14;;;;;;;3.75;2.17;;;;;;;;;;5054286;28;20083;-85
2022/04/13 11:28:40;;;;;;;5.93;3.75;;;;;;;;;;5054520;28;20551;-87
2022/04/13 11:31:05;;;;;;;3.40;2.58;;;;;;;;;;5054251;28;20061;-86
2022/04/13 11:33:30;;;;;;;3.95;2.42;;;;;;;;;;5055954;28;20025;-85
2022/04/13 11:35:56;;;;;;;5.13;2.30;;;;;;;;;;5054656;28;20033;-85
2022/04/13 11:38:21;;;;;;;4.97;2.90;;;;;;;;;;5036335;28;20040;-87
2022/04/13 11:40:46;;;;;;;6.13;2.80;;;;;;;;;;5053181;28;20055;-85
2022/04/13 11:43:11;;;;;;;5.35;2.38;;;;;;;;;;5053007;28;20520;-85
2022/04/13 11:45:37;;;;;;;3.85;2.15;;;;;;;;;;5052743;28;20029;-86
2022/04/13 11:48:03;;;;;;;5.60;2.72;;;;;;;;;;5053562;28;20039;-85
2022/04/13 11:50:29;;;;;;;5.60;3.15;;;;;;;;;;5052542;28;20041;-84
2022/04/13 11:52:54;;;;;;;6.25;2.97;;;;;;;;;;5046280;28;20091;-87
2022/04/13 11:55:19;;;;;;;7.80;2.58;;;;;;;;;;5054633;28;20040;-86
2022/04/13 11:57:45;;;;;;;7.40;2.40;;;;;;;;;;5038015;28;20052;-86
2022/04/13 12:00:10;;;;;;;4.82;2.10;;;;;;;;;;5055030;28;20062;-85
2022/04/13 12:02:40;;;;;;;5.85;2.20;;;;;;;;;;5055925;28;20033;-87
2022/04/13 12:05:07;;;;;;;3.75;2.10;;;;;;;;;;5055557;28;20057;-86
2022/04/13 12:07:32;;;;;;;4.13;2.38;;;;;;;;;;5054606;28;20025;-86
2022/04/13 12:09:57;;;;;;;5.45;2.40;;;;;;;;;;5054661;28;20071;-85
2022/04/13 12:12:22;;;;;;;5.30;2.55;;;;;;;;;;5054239;28;20071;-84
2022/04/13 12:14:48;;;;;;;5.38;2.10;;;;;;;;;;5053848;28;20044;-85
2022/04/13 12:17:13;;;;;;;3.47;1.88;;;;;;;;;;5055787;28;20033;-84
2022/04/13 12:19:39;;;;;;;8.23;2.20;;;;;;;;;;5055263;28;20508;-86
2022/04/13 12:22:04;;;;;;;6.25;2.20;;;;;;;;;;5054404;28;20131;-85
2022/04/13 12:24:29;;;;;;;6.53;2.20;;;;;;;;;;5053686;28;20044;-85
2022/04/13 12:26:54;;;;;;;3.38;2.40;;;;;;;;;;5053815;28;20136;-85
2022/04/13 12:29:20;;;;;;;7.15;2.33;;;;;;;;;;5053364;28;20033;-86
2022/04/13 12:31:45;;;;;;;3.78;1.90;;;;;;;;;;5054059;28;20045;-84
2022/04/13 12:34:10;;;;;;;9.40;3.40;;;;;;;;;;5053814;28;20033;-85
2022/04/13 12:36:35;;;;;;;5.05;2.50;;;;;;;;;;5054052;28;20045;-85
2022/04/13 12:39:01;;;;;;;4.93;3.25;;;;;;;;;;5053092;28;20062;-85
2022/04/13 12:41:26;;;;;;;7.97;3.35;;;;;;;;;;5052760;28;20057;-86
2022/04/13 12:43:51;;;;;;;8.98;2.30;;;;;;;;;;5055844;28;20021;-84
2022/04/13 12:46:16;;;;;;;4.63;2.53;;;;;;;;;;5053673;28;20528;-87
2022/04/13 12:48:42;;;;;;;8.02;4.57;;;;;;;;;;5053659;28;20044;-87
2022/04/13 12:51:07;;;;;;;5.20;3.10;;;;;;;;;;5053578;28;20393;-87
2022/04/13 12:53:32;;;;;;;7.57;2.90;;;;;;;;;;5053973;28;20290;-87
2022/04/13 12:55:58;;;;;;;3.90;2.35;;;;;;;;;;5056977;28;20555;-84
2022/04/13 12:58:23;;;;;;;4.85;2.25;;;;;;;;;;5056960;28;20037;-86
2022/04/13 13:00:48;;;;;;;6.07;3.47;;;;;;;;;;5066739;28;20049;-85
2022/04/13 13:03:13;;;;;;;5.72;2.13;;;;;;;;;;5059404;28;20029;-85
2022/04/13 13:05:39;;;;;;;4.60;2.30;;;;;;;;;;5057336;28;20029;-86
2022/04/13 13:08:04;;;;;;;7.38;3.10;;;;;;;;;;5060675;28;20047;-86
2022/04/13 13:10:29;;;;;;;3.17;1.80;;;;;;;;;;5060194;28;20047;-86
2022/04/13 13:12:54;;;;;;;3.20;1.70;;;;;;;;;;5059039;28;20032;-85
2022/04/13 13:15:20;;;;;;;6.22;2.00;;;;;;;;;;5041421;28;20059;-85
2022/04/13 13:17:46;;;;;;;5.13;1.85;;;;;;;;;;5058179;28;20043;-86
2022/04/13 13:20:12;;;;;;;3.40;1.77;;;;;;;;;;5039523;28;20120;-85
2022/04/13 13:22:40;;;;;;;4.55;2.00;;;;;;;;;;5057973;28;20513;-86
2022/04/13 13:25:06;;;;;;;3.95;1.60;;;;;;;;;;5057419;28;20108;-86
2022/04/13 13:27:32;;;;;;;3.50;1.70;;;;;;;;;;5058098;28;20472;-86
2022/04/13 13:29:57;;;;;;;3.40;1.75;;;;;;;;;;5068146;28;20036;-85
2022/04/13 13:32:22;;;;;;;3.25;1.90;;;;;;;;;;5060415;28;20028;-86
2022/04/13 13:34:47;;;;;;;3.65;1.60;;;;;;;;;;5058623;28;20037;-86
2022/04/13 13:37:14;;;;;;;3.38;1.88;;;;;;;;;;5040917;28;20044;-86
2022/04/13 13:39:39;;;;;;;2.83;1.63;;;;;;;;;;5058065;28;20083;-85
2022/04/13 13:42:04;;;;;;;5.65;1.90;;;;;;;;;;5058569;28;20033;-86
2022/04/13 13:44:29;;;;;;;2.35;1.80;;;;;;;;;;5056780;28;20060;-86
2022/04/13 13:46:55;;;;;;;3.33;1.70;;;;;;;;;;5056964;28;20037;-87
2022/04/13 13:49:20;;;;;;;3.63;2.07;;;;;;;;;;5056374;28;20340;-86
2022/04/13 13:51:48;;;;;;;4.20;1.87;;;;;;;;;;5040259;28;20276;-85
2022/04/13 13:54:13;;;;;;;3.33;1.92;;;;;;;;;;5057066;28;20823;-85
2022/04/13 13:56:38;;;;;;;7.05;2.10;;;;;;;;;;5058505;28;20087;-86
2022/04/13 13:59:03;;;;;;;3.28;2.00;;;;;;;;;;5059442;28;20424;-86
2022/04/13 14:01:29;;;;;;;4.57;2.00;;;;;;;;;;5056349;28;20072;-88
2022/04/13 14:03:54;;;;;;;3.90;1.77;;;;;;;;;;5056804;28;20021;-85
2022/04/13 14:06:19;;;;;;;3.65;1.98;;;;;;;;;;5055191;28;20783;-86
2022/04/13 14:08:44;;;;;;;3.58;1.90;;;;;;;;;;5066838;28;20128;-88
2022/04/13 14:11:10;;;;;;;4.88;2.08;;;;;;;;;;5059421;28;20037;-87
2022/04/13 14:13:35;;;;;;;5.03;1.80;;;;;;;;;;5060169;28;20070;-86
2022/04/13 14:16:00;;;;;;;4.63;1.88;;;;;;;;;;5040886;28;20857;-88
2022/04/13 14:18:26;;;;;;;5.68;2.10;;;;;;;;;;5059696;28;20116;-89
2022/04/13 14:20:51;;;;;;;6.38;2.00;;;;;;;;;;5059763;28;20128;-87
2022/04/13 14:23:16;;;;;;;4.28;1.98;;;;;;;;;;5057873;28;20069;-88
2022/04/13 14:25:41;;;;;;;6.07;2.28;;;;;;;;;;5058868;28;20112;-87
2022/04/13 14:28:07;;;;;;;9.60;2.00;;;;;;;;;;5058676;28;20039;-86
2022/04/13 14:30:32;;;;;;;9.90;2.28;;;;;;;;;;5059972;28;20119;-86
2022/04/13 14:32:57;;;;;;;4.40;2.30;;;;;;;;;;5064105;23;20056;-84